createdAt,value
2017-10-05T00:00:18.394Z,17.74
2017-10-05T00:00:37.645Z,17.84
2017-10-05T00:00:55.878Z,17.85
2017-10-05T00:01:14.629Z,17.82
2017-10-05T00:01:33.412Z,17.84
2017-10-05T00:01:51.700Z,17.92
2017-10-05T00:02:11.038Z,17.85
2017-10-05T00:02:30.354Z,17.87
2017-10-05T00:02:49.647Z,17.88
2017-10-05T00:03:08.393Z,17.87
2017-10-05T00:03:27.652Z,17.77
2017-10-05T00:03:46.947Z,17.84
2017-10-05T00:04:05.707Z,17.88
2017-10-05T00:04:24.492Z,17.77
2017-10-05T00:04:42.204Z,17.84
2017-10-05T00:05:00.971Z,17.88
2017-10-05T00:05:19.220Z,17.91
2017-10-05T00:05:37.950Z,17.89
2017-10-05T00:05:56.195Z,17.88
2017-10-05T00:06:14.956Z,17.88
2017-10-05T00:06:33.732Z,17.88
2017-10-05T00:06:52.485Z,17.87
2017-10-05T00:07:11.243Z,17.84
2017-10-05T00:07:30.099Z,17.88
2017-10-05T00:07:48.846Z,17.92
2017-10-05T00:08:07.081Z,17.87
2017-10-05T00:08:25.852Z,17.91
2017-10-05T00:08:44.613Z,17.88
2017-10-05T00:09:02.866Z,17.88
2017-10-05T00:09:21.531Z,17.91
2017-10-05T00:09:41.226Z,17.88
2017-10-05T00:09:59.978Z,17.91
2017-10-05T00:10:18.732Z,17.89
2017-10-05T00:10:38.034Z,17.91
2017-10-05T00:10:55.752Z,17.85
2017-10-05T00:11:14.515Z,17.91
2017-10-05T00:11:33.275Z,17.81
2017-10-05T00:11:52.025Z,17.87
2017-10-05T00:12:10.824Z,17.7
2017-10-05T00:12:29.601Z,17.79
2017-10-05T00:12:48.368Z,17.85
2017-10-05T00:13:07.627Z,17.74
2017-10-05T00:13:26.381Z,17.81
2017-10-05T00:13:45.118Z,17.89
2017-10-05T00:14:03.897Z,17.71
2017-10-05T00:14:22.659Z,17.76
2017-10-05T00:14:41.410Z,17.82
2017-10-05T00:15:00.742Z,17.79
2017-10-05T00:15:20.041Z,17.74
2017-10-05T00:15:38.916Z,17.73
2017-10-05T00:15:58.257Z,17.88
2017-10-05T00:16:17.026Z,17.71
2017-10-05T00:16:35.260Z,17.73
2017-10-05T00:16:54.033Z,17.71
2017-10-05T00:17:13.365Z,17.82
2017-10-05T00:17:32.128Z,17.71
2017-10-05T00:17:50.916Z,17.85
2017-10-05T00:18:09.688Z,17.85
2017-10-05T00:18:27.929Z,17.71
2017-10-05T00:18:47.199Z,17.81
2017-10-05T00:19:06.477Z,17.79
2017-10-05T00:19:24.757Z,17.71
2017-10-05T00:19:43.494Z,17.74
2017-10-05T00:20:02.769Z,17.67
2017-10-05T00:20:22.077Z,17.73
2017-10-05T00:20:40.861Z,17.77
2017-10-05T00:20:59.651Z,17.71
2017-10-05T00:21:18.925Z,17.69
2017-10-05T00:21:38.238Z,17.76
2017-10-05T00:21:57.528Z,17.74
2017-10-05T00:22:16.254Z,17.74
2017-10-05T00:22:35.248Z,17.74
2017-10-05T00:22:54.020Z,17.79
2017-10-05T00:23:12.803Z,17.74
2017-10-05T00:23:32.108Z,17.74
2017-10-05T00:23:51.368Z,17.74
2017-10-05T00:24:10.109Z,17.71
2017-10-05T00:24:29.367Z,17.7
2017-10-05T00:24:48.619Z,17.76
2017-10-05T00:25:07.908Z,17.69
2017-10-05T00:25:26.663Z,17.69
2017-10-05T00:25:45.556Z,17.69
2017-10-05T00:26:04.901Z,17.63
2017-10-05T00:26:24.198Z,17.67
2017-10-05T00:26:42.988Z,17.55
2017-10-05T00:27:01.330Z,17.64
2017-10-05T00:27:20.084Z,17.57
2017-10-05T00:27:38.465Z,17.64
2017-10-05T00:28:28.930Z,17.53
2017-10-05T00:29:44.526Z,17.6
2017-10-05T00:30:03.297Z,17.67
2017-10-05T00:31:24.401Z,17.63
2017-10-05T00:31:42.641Z,17.64
2017-10-05T00:32:21.392Z,17.47
2017-10-05T00:32:40.269Z,17.47
2017-10-05T00:32:59.566Z,17.48
2017-10-05T00:33:18.949Z,17.51
2017-10-05T00:33:38.221Z,17.5
2017-10-05T00:33:55.938Z,17.47
2017-10-05T00:34:14.168Z,17.51
2017-10-05T00:34:33.442Z,17.51
2017-10-05T00:34:52.239Z,17.47
2017-10-05T00:35:10.508Z,17.47
2017-10-05T00:35:29.782Z,17.46
2017-10-05T00:35:48.524Z,17.5
2017-10-05T00:36:07.280Z,17.38
2017-10-05T00:36:29.073Z,17.36
2017-10-05T00:37:13.558Z,17.38
2017-10-05T00:37:32.964Z,17.38
2017-10-05T00:37:52.233Z,17.38
2017-10-05T00:38:10.504Z,17.35
2017-10-05T00:38:29.354Z,17.3
2017-10-05T00:38:47.658Z,17.35
2017-10-05T00:39:06.446Z,17.28
2017-10-05T00:39:24.701Z,17.25
2017-10-05T00:39:42.964Z,17.32
2017-10-05T00:40:01.710Z,17.21
2017-10-05T00:40:20.494Z,17.17
2017-10-05T00:40:38.213Z,17.29
2017-10-05T00:40:56.476Z,17.26
2017-10-05T00:41:15.793Z,17.21
2017-10-05T00:41:34.612Z,17.08
2017-10-05T00:41:52.821Z,17.2
2017-10-05T00:42:11.556Z,17.17
2017-10-05T00:42:30.855Z,17.25
2017-10-05T00:42:49.147Z,17.23
2017-10-05T00:43:07.375Z,17.08
2017-10-05T00:43:26.140Z,17.02
2017-10-05T00:43:44.956Z,17
2017-10-05T00:44:03.717Z,17.14
2017-10-05T00:44:23.016Z,17.1
2017-10-05T00:44:42.298Z,17.17
2017-10-05T00:45:00.545Z,17.13
2017-10-05T00:45:19.389Z,17.1
2017-10-05T00:45:38.724Z,17.1
2017-10-05T00:45:58.204Z,17.11
2017-10-05T00:46:17.018Z,17.17
2017-10-05T00:46:35.910Z,17.15
2017-10-05T00:46:55.232Z,17.15
2017-10-05T00:47:14.018Z,17.14
2017-10-05T00:47:32.796Z,17.17
2017-10-05T00:47:52.199Z,17.11
2017-10-05T00:48:10.988Z,17.2
2017-10-05T00:48:29.760Z,17.1
2017-10-05T00:48:48.522Z,17.14
2017-10-05T00:49:07.841Z,17.26
2017-10-05T00:49:26.647Z,17.26
2017-10-05T00:49:46.143Z,17.32
2017-10-05T00:50:04.893Z,17.33
2017-10-05T00:50:24.158Z,17.32
2017-10-05T00:50:43.523Z,17.36
2017-10-05T00:51:02.314Z,17.36
2017-10-05T00:51:21.799Z,17.38
2017-10-05T00:51:41.073Z,17.35
2017-10-05T00:51:59.835Z,17.39
2017-10-05T00:52:19.099Z,17.4
2017-10-05T00:52:38.251Z,17.43
2017-10-05T00:52:57.023Z,17.46
2017-10-05T00:53:14.748Z,17.53
2017-10-05T00:53:34.031Z,17.51
2017-10-05T00:53:52.278Z,17.58
2017-10-05T00:54:11.042Z,17.51
2017-10-05T00:54:28.762Z,17.48
2017-10-05T00:54:48.056Z,17.54
2017-10-05T00:55:07.323Z,17.53
2017-10-05T00:55:26.625Z,17.53
2017-10-05T00:55:45.954Z,17.51
2017-10-05T00:56:04.719Z,17.5
2017-10-05T00:56:22.974Z,17.57
2017-10-05T00:56:42.279Z,17.55
2017-10-05T00:57:01.104Z,17.55
2017-10-05T00:57:19.936Z,17.53
2017-10-05T00:57:38.889Z,17.54
2017-10-05T00:57:57.640Z,17.53
2017-10-05T00:58:16.958Z,17.5
2017-10-05T00:58:36.302Z,17.48
2017-10-05T00:58:55.060Z,17.48
2017-10-05T00:59:13.314Z,17.39
2017-10-05T00:59:32.078Z,17.4
2017-10-05T00:59:50.960Z,17.36
2017-10-05T01:00:10.310Z,17.43
2017-10-05T01:00:29.607Z,17.33
2017-10-05T01:00:47.870Z,17.35
2017-10-05T01:01:06.120Z,17.35
2017-10-05T01:01:24.390Z,17.4
2017-10-05T01:01:42.657Z,17.36
2017-10-05T01:02:01.905Z,17.32
2017-10-05T01:02:21.166Z,17.39
2017-10-05T01:02:40.071Z,17.32
2017-10-05T01:02:59.333Z,17.28
2017-10-05T01:03:18.083Z,17.25
2017-10-05T01:03:36.854Z,17.28
2017-10-05T01:03:56.132Z,17.29
2017-10-05T01:04:15.413Z,17.35
2017-10-05T01:04:34.689Z,17.38
2017-10-05T01:04:53.455Z,17.32
2017-10-05T01:05:12.727Z,17.3
2017-10-05T01:05:31.508Z,17.38
2017-10-05T01:05:50.270Z,17.39
2017-10-05T01:06:09.572Z,17.39
2017-10-05T01:06:28.854Z,17.39
2017-10-05T01:06:47.092Z,17.4
2017-10-05T01:07:05.840Z,17.36
2017-10-05T01:07:25.115Z,17.36
2017-10-05T01:07:44.165Z,17.39
2017-10-05T01:08:03.447Z,17.36
2017-10-05T01:08:22.206Z,17.38
2017-10-05T01:08:40.950Z,17.44
2017-10-05T01:08:59.698Z,17.36
2017-10-05T01:09:18.973Z,17.38
2017-10-05T01:09:37.720Z,17.4
2017-10-05T01:09:56.468Z,17.33
2017-10-05T01:10:15.240Z,17.36
2017-10-05T01:10:32.959Z,17.38
2017-10-05T01:10:52.274Z,17.39
2017-10-05T01:11:11.548Z,17.35
2017-10-05T01:11:30.799Z,17.44
2017-10-05T01:11:49.550Z,17.36
2017-10-05T01:12:08.338Z,17.35
2017-10-05T01:12:27.112Z,17.28
2017-10-05T01:12:45.957Z,17.32
2017-10-05T01:13:04.715Z,17.26
2017-10-05T01:13:23.990Z,17.33
2017-10-05T01:13:43.280Z,17.14
2017-10-05T01:14:02.045Z,17.21
2017-10-05T01:14:21.314Z,17.11
2017-10-05T01:14:39.574Z,17.11
2017-10-05T01:14:58.340Z,17.14
2017-10-05T01:15:16.047Z,17.03
2017-10-05T01:15:34.804Z,17.11
2017-10-05T01:15:53.029Z,17.11
2017-10-05T01:16:12.331Z,17.11
2017-10-05T01:16:31.083Z,16.95
2017-10-05T01:16:49.856Z,17
2017-10-05T01:17:09.157Z,16.89
2017-10-05T01:17:27.917Z,16.92
2017-10-05T01:17:47.344Z,16.82
2017-10-05T01:18:06.086Z,16.88
2017-10-05T01:18:24.826Z,16.85
2017-10-05T01:18:43.616Z,16.81
2017-10-05T01:19:02.921Z,16.85
2017-10-05T01:19:22.185Z,16.81
2017-10-05T01:19:41.451Z,16.82
2017-10-05T01:20:00.711Z,16.9
2017-10-05T01:20:19.448Z,16.9
2017-10-05T01:20:37.668Z,16.93
2017-10-05T01:20:55.390Z,16.96
2017-10-05T01:21:14.684Z,16.98
2017-10-05T01:21:33.465Z,16.96
2017-10-05T01:21:52.257Z,17
2017-10-05T01:22:10.997Z,16.95
2017-10-05T01:22:29.753Z,16.96
2017-10-05T01:22:48.791Z,17.08
2017-10-05T01:23:08.058Z,17.07
2017-10-05T01:23:27.319Z,17.08
2017-10-05T01:23:45.025Z,17.07
2017-10-05T01:24:03.264Z,17.08
2017-10-05T01:24:22.024Z,17.08
2017-10-05T01:25:13.032Z,16.99
2017-10-05T01:25:31.795Z,17.11
2017-10-05T01:25:50.031Z,17.03
2017-10-05T01:26:08.791Z,17.08
2017-10-05T01:26:28.049Z,17.03
2017-10-05T01:26:46.275Z,17.08
2017-10-05T01:27:05.036Z,17.11
2017-10-05T01:27:24.311Z,17.02
2017-10-05T01:27:43.605Z,17.07
2017-10-05T01:28:01.870Z,17.03
2017-10-05T01:28:20.638Z,17.11
2017-10-05T01:28:39.394Z,17.11
2017-10-05T01:28:57.623Z,17.07
2017-10-05T01:29:15.862Z,17.07
2017-10-05T01:29:34.620Z,17.05
2017-10-05T01:29:53.380Z,17.17
2017-10-05T01:30:12.665Z,17.17
2017-10-05T01:30:31.417Z,17.17
2017-10-05T01:30:50.158Z,17.17
2017-10-05T01:31:08.899Z,17.15
2017-10-05T01:31:27.657Z,17.23
2017-10-05T01:31:46.419Z,17.21
2017-10-05T01:32:04.729Z,17.13
2017-10-05T01:32:24.005Z,17.18
2017-10-05T01:32:42.230Z,17.07
2017-10-05T01:33:00.982Z,17.07
2017-10-05T01:33:19.739Z,17.03
2017-10-05T01:33:38.488Z,17.17
2017-10-05T01:33:57.774Z,17.17
2017-10-05T01:34:17.081Z,17.18
2017-10-05T01:34:35.328Z,17.23
2017-10-05T01:34:53.541Z,17.28
2017-10-05T01:35:12.812Z,17.26
2017-10-05T01:35:32.084Z,17.2
2017-10-05T01:35:50.312Z,17.26
2017-10-05T01:36:08.567Z,17.28
2017-10-05T01:36:27.877Z,17.29
2017-10-05T01:36:46.127Z,17.29
2017-10-05T01:37:05.407Z,17.23
2017-10-05T01:37:23.662Z,17.29
2017-10-05T01:37:43.091Z,17.29
2017-10-05T01:38:00.826Z,17.35
2017-10-05T01:38:20.104Z,17.28
2017-10-05T01:38:38.872Z,17.32
2017-10-05T01:38:57.119Z,17.28
2017-10-05T01:39:15.895Z,17.26
2017-10-05T01:39:35.273Z,17.33
2017-10-05T01:39:54.571Z,17.32
2017-10-05T01:40:13.308Z,17.3
2017-10-05T01:40:32.577Z,17.36
2017-10-05T01:40:50.804Z,17.26
2017-10-05T01:41:09.018Z,17.39
2017-10-05T01:41:28.307Z,17.36
2017-10-05T01:41:47.030Z,17.38
2017-10-05T01:42:04.737Z,17.43
2017-10-05T01:42:24.045Z,17.29
2017-10-05T01:42:43.100Z,17.39
2017-10-05T01:43:01.874Z,17.39
2017-10-05T01:43:20.630Z,17.53
2017-10-05T01:43:39.363Z,17.4
2017-10-05T01:43:57.061Z,17.48
2017-10-05T01:44:14.249Z,17.38
2017-10-05T01:44:32.999Z,17.36
2017-10-05T01:44:52.308Z,17.38
2017-10-05T01:45:11.604Z,17.21
2017-10-05T01:45:30.356Z,17.28
2017-10-05T01:45:48.083Z,17.47
2017-10-05T01:46:06.856Z,17.39
2017-10-05T01:46:26.156Z,17.4
2017-10-05T01:46:44.931Z,17.5
2017-10-05T01:47:02.666Z,17.58
2017-10-05T01:47:21.418Z,17.54
2017-10-05T01:47:40.765Z,17.53
2017-10-05T01:47:59.531Z,17.51
2017-10-05T01:48:18.823Z,17.44
2017-10-05T01:48:38.114Z,17.53
2017-10-05T01:48:56.861Z,17.54
2017-10-05T01:49:16.142Z,17.58
2017-10-05T01:49:34.378Z,17.64
2017-10-05T01:49:53.130Z,17.81
2017-10-05T01:50:12.420Z,17.84
2017-10-05T01:50:31.677Z,17.76
2017-10-05T01:50:49.394Z,17.76
2017-10-05T01:51:08.669Z,17.81
2017-10-05T01:51:27.455Z,17.71
2017-10-05T01:51:45.727Z,17.76
2017-10-05T01:52:05.020Z,17.69
2017-10-05T01:52:23.780Z,17.69
2017-10-05T01:52:42.015Z,17.7
2017-10-05T01:53:00.753Z,17.69
2017-10-05T01:53:20.015Z,17.67
2017-10-05T01:53:38.256Z,17.73
2017-10-05T01:53:57.018Z,17.71
2017-10-05T01:54:16.293Z,17.71
2017-10-05T01:54:35.061Z,17.81
2017-10-05T01:54:53.298Z,17.71
2017-10-05T01:55:12.053Z,17.74
2017-10-05T01:55:30.800Z,17.79
2017-10-05T01:55:49.559Z,17.81
2017-10-05T01:56:08.305Z,17.82
2017-10-05T01:56:26.538Z,17.88
2017-10-05T01:56:44.782Z,17.87
2017-10-05T01:57:03.529Z,17.87
2017-10-05T01:57:22.265Z,17.91
2017-10-05T01:57:41.028Z,17.85
2017-10-05T01:57:59.821Z,17.79
2017-10-05T01:58:18.562Z,17.84
2017-10-05T01:58:37.334Z,17.89
2017-10-05T01:58:56.107Z,17.91
2017-10-05T01:59:14.316Z,17.94
2017-10-05T01:59:32.592Z,17.85
2017-10-05T01:59:51.337Z,17.87
2017-10-05T02:00:09.564Z,17.91
2017-10-05T02:00:28.345Z,17.88
2017-10-05T02:00:47.096Z,17.82
2017-10-05T02:01:05.825Z,17.92
2017-10-05T02:01:25.088Z,17.79
2017-10-05T02:01:44.365Z,17.87
2017-10-05T02:02:02.639Z,17.77
2017-10-05T02:02:20.349Z,17.82
2017-10-05T02:03:13.302Z,17.85
2017-10-05T02:03:31.528Z,17.74
2017-10-05T02:03:50.785Z,17.76
2017-10-05T02:04:09.559Z,17.82
2017-10-05T02:04:28.840Z,17.7
2017-10-05T02:04:48.123Z,17.81
2017-10-05T02:05:06.889Z,17.85
2017-10-05T02:05:25.680Z,17.67
2017-10-05T02:05:44.968Z,17.76
2017-10-05T02:06:04.237Z,17.77
2017-10-05T02:06:23.008Z,17.85
2017-10-05T02:06:41.776Z,17.79
2017-10-05T02:07:00.525Z,17.76
2017-10-05T02:07:19.300Z,17.74
2017-10-05T02:07:38.034Z,17.77
2017-10-05T02:07:56.281Z,17.87
2017-10-05T02:08:15.545Z,17.87
2017-10-05T02:08:33.768Z,17.91
2017-10-05T02:08:52.535Z,17.85
2017-10-05T02:09:11.806Z,17.85
2017-10-05T02:09:30.086Z,17.87
2017-10-05T02:09:48.833Z,17.85
2017-10-05T02:10:07.063Z,17.91
2017-10-05T02:10:25.792Z,17.82
2017-10-05T02:10:44.025Z,17.85
2017-10-05T02:11:03.297Z,17.82
2017-10-05T02:11:22.048Z,17.73
2017-10-05T02:11:40.298Z,17.79
2017-10-05T02:11:59.050Z,17.77
2017-10-05T02:12:17.313Z,17.91
2017-10-05T02:12:36.190Z,17.94
2017-10-05T02:12:54.956Z,17.87
2017-10-05T02:13:14.238Z,17.88
2017-10-05T02:13:31.969Z,17.85
2017-10-05T02:13:50.194Z,17.85
2017-10-05T02:14:08.964Z,17.95
2017-10-05T02:14:26.694Z,17.92
2017-10-05T02:14:44.922Z,17.88
2017-10-05T02:15:03.695Z,17.94
2017-10-05T02:15:23.009Z,17.96
2017-10-05T02:15:41.779Z,17.98
2017-10-05T02:16:00.528Z,17.94
2017-10-05T02:16:18.221Z,17.91
2017-10-05T02:16:37.799Z,17.96
2017-10-05T02:16:57.095Z,17.88
2017-10-05T02:17:15.853Z,17.98
2017-10-05T02:17:34.634Z,17.87
2017-10-05T02:17:53.909Z,17.91
2017-10-05T02:18:12.650Z,17.92
2017-10-05T02:18:31.397Z,17.82
2017-10-05T02:18:50.135Z,17.92
2017-10-05T02:19:09.402Z,17.88
2017-10-05T02:19:28.177Z,17.91
2017-10-05T02:19:46.973Z,18
2017-10-05T02:20:05.227Z,17.92
2017-10-05T02:20:24.493Z,17.95
2017-10-05T02:20:42.728Z,17.94
2017-10-05T02:21:01.505Z,17.96
2017-10-05T02:21:19.729Z,17.94
2017-10-05T02:21:37.442Z,17.98
2017-10-05T02:21:56.709Z,17.94
2017-10-05T02:22:15.966Z,17.88
2017-10-05T02:22:34.911Z,17.91
2017-10-05T02:22:53.686Z,17.92
2017-10-05T02:23:11.951Z,17.96
2017-10-05T02:23:30.709Z,18.03
2017-10-05T02:23:49.980Z,17.92
2017-10-05T02:24:09.265Z,17.94
2017-10-05T02:24:28.035Z,17.95
2017-10-05T02:24:46.281Z,17.88
2017-10-05T02:25:05.582Z,17.88
2017-10-05T02:25:24.841Z,17.98
2017-10-05T02:25:43.083Z,17.87
2017-10-05T02:26:01.329Z,17.89
2017-10-05T02:26:20.085Z,17.95
2017-10-05T02:26:38.834Z,17.92
2017-10-05T02:26:57.636Z,17.91
2017-10-05T02:27:16.393Z,17.95
2017-10-05T02:27:35.734Z,17.85
2017-10-05T02:27:54.480Z,17.82
2017-10-05T02:28:13.214Z,17.91
2017-10-05T02:28:32.463Z,17.87
2017-10-05T02:28:50.703Z,17.82
2017-10-05T02:29:09.959Z,17.81
2017-10-05T02:29:28.725Z,17.79
2017-10-05T02:29:47.494Z,17.73
2017-10-05T02:30:05.196Z,17.81
2017-10-05T02:30:23.978Z,17.76
2017-10-05T02:30:43.245Z,17.71
2017-10-05T02:31:01.489Z,17.91
2017-10-05T02:31:19.743Z,17.84
2017-10-05T02:31:37.972Z,17.98
2017-10-05T02:31:55.677Z,17.96
2017-10-05T02:32:14.438Z,17.94
2017-10-05T02:32:33.318Z,17.94
2017-10-05T02:32:52.072Z,17.91
2017-10-05T02:33:10.840Z,17.85
2017-10-05T02:33:30.111Z,17.94
2017-10-05T02:33:48.872Z,17.98
2017-10-05T02:34:07.620Z,17.92
2017-10-05T02:34:27.144Z,17.91
2017-10-05T02:34:46.405Z,17.89
2017-10-05T02:35:04.125Z,17.89
2017-10-05T02:35:23.419Z,17.85
2017-10-05T02:35:42.711Z,17.81
2017-10-05T02:36:01.471Z,17.77
2017-10-05T02:36:19.740Z,17.76
2017-10-05T02:36:37.986Z,17.76
2017-10-05T02:36:56.788Z,17.73
2017-10-05T02:37:15.028Z,17.67
2017-10-05T02:37:34.351Z,17.76
2017-10-05T02:37:53.098Z,17.79
2017-10-05T02:38:11.881Z,17.76
2017-10-05T02:38:30.635Z,17.79
2017-10-05T02:38:49.407Z,17.73
2017-10-05T02:39:08.165Z,17.73
2017-10-05T02:39:27.440Z,17.73
2017-10-05T02:39:46.363Z,17.74
2017-10-05T02:40:05.102Z,17.73
2017-10-05T02:40:23.861Z,17.79
2017-10-05T02:40:43.113Z,17.73
2017-10-05T02:41:01.353Z,17.81
2017-10-05T02:41:19.585Z,17.77
2017-10-05T02:41:37.810Z,17.82
2017-10-05T02:41:56.051Z,17.79
2017-10-05T02:42:14.824Z,17.74
2017-10-05T02:42:33.570Z,17.82
2017-10-05T02:42:52.332Z,17.85
2017-10-05T02:43:11.070Z,17.82
2017-10-05T02:43:30.336Z,17.85
2017-10-05T02:43:49.077Z,17.82
2017-10-05T02:44:07.852Z,17.87
2017-10-05T02:44:26.097Z,17.81
2017-10-05T02:44:44.868Z,17.81
2017-10-05T02:45:03.602Z,17.87
2017-10-05T02:45:22.359Z,17.82
2017-10-05T02:45:41.101Z,17.92
2017-10-05T02:46:00.422Z,17.87
2017-10-05T02:46:19.216Z,17.88
2017-10-05T02:46:37.970Z,17.88
2017-10-05T02:46:56.738Z,17.74
2017-10-05T02:47:14.975Z,17.88
2017-10-05T02:47:34.372Z,17.85
2017-10-05T02:47:52.588Z,17.82
2017-10-05T02:48:11.853Z,17.87
2017-10-05T02:48:31.138Z,17.76
2017-10-05T02:48:49.344Z,17.87
2017-10-05T02:49:08.615Z,17.71
2017-10-05T02:49:27.915Z,17.88
2017-10-05T02:49:45.638Z,17.84
2017-10-05T02:50:04.415Z,17.77
2017-10-05T02:50:23.668Z,17.81
2017-10-05T02:50:42.939Z,17.79
2017-10-05T02:51:02.203Z,17.71
2017-10-05T02:51:20.982Z,17.79
2017-10-05T02:51:40.259Z,17.73
2017-10-05T02:51:59.037Z,17.77
2017-10-05T02:52:17.282Z,17.76
2017-10-05T02:52:36.697Z,17.77
2017-10-05T02:52:55.983Z,17.73
2017-10-05T02:53:14.252Z,17.71
2017-10-05T02:53:33.523Z,17.66
2017-10-05T02:53:52.254Z,17.7
2017-10-05T02:54:10.461Z,17.64
2017-10-05T02:54:29.220Z,17.64
2017-10-05T02:54:47.459Z,17.55
2017-10-05T02:55:06.220Z,17.64
2017-10-05T02:55:24.458Z,17.64
2017-10-05T02:55:43.740Z,17.7
2017-10-05T02:56:01.973Z,17.74
2017-10-05T02:56:21.252Z,17.73
2017-10-05T02:56:40.027Z,17.69
2017-10-05T02:56:58.775Z,17.7
2017-10-05T02:57:16.982Z,17.69
2017-10-05T02:57:35.767Z,17.66
2017-10-05T02:57:55.040Z,17.58
2017-10-05T02:58:13.796Z,17.58
2017-10-05T02:58:33.072Z,17.64
2017-10-05T02:58:51.844Z,17.66
2017-10-05T02:59:10.590Z,17.69
2017-10-05T02:59:28.835Z,17.67
2017-10-05T02:59:47.587Z,17.64
2017-10-05T03:00:05.303Z,17.7
2017-10-05T03:00:24.601Z,17.58
2017-10-05T03:00:43.372Z,17.58
2017-10-05T03:01:02.636Z,17.58
2017-10-05T03:01:21.909Z,17.58
2017-10-05T03:01:40.144Z,17.55
2017-10-05T03:01:59.403Z,17.57
2017-10-05T03:02:17.128Z,17.57
2017-10-05T03:02:36.037Z,17.57
2017-10-05T03:02:54.812Z,17.64
2017-10-05T03:03:14.097Z,17.67
2017-10-05T03:03:32.842Z,17.71
2017-10-05T03:03:52.102Z,17.69
2017-10-05T03:04:11.375Z,17.7
2017-10-05T03:04:30.120Z,17.6
2017-10-05T03:04:48.869Z,17.66
2017-10-05T03:05:08.144Z,17.63
2017-10-05T03:05:26.885Z,17.63
2017-10-05T03:05:45.631Z,17.55
2017-10-05T03:06:04.356Z,17.67
2017-10-05T03:06:22.627Z,17.7
2017-10-05T03:06:41.914Z,17.6
2017-10-05T03:07:01.190Z,17.58
2017-10-05T03:07:19.935Z,17.66
2017-10-05T03:07:38.770Z,17.57
2017-10-05T03:07:57.027Z,17.64
2017-10-05T03:08:15.807Z,17.69
2017-10-05T03:08:34.046Z,17.7
2017-10-05T03:08:52.803Z,17.55
2017-10-05T03:09:12.089Z,17.6
2017-10-05T03:09:30.339Z,17.64
2017-10-05T03:09:48.574Z,17.57
2017-10-05T03:10:07.852Z,17.6
2017-10-05T03:10:26.076Z,17.63
2017-10-05T03:10:44.320Z,17.58
2017-10-05T03:11:02.560Z,17.64
2017-10-05T03:11:20.816Z,17.6
2017-10-05T03:11:39.560Z,17.64
2017-10-05T03:11:58.315Z,17.64
2017-10-05T03:12:16.530Z,17.58
2017-10-05T03:12:34.757Z,17.67
2017-10-05T03:12:53.489Z,17.64
2017-10-05T03:13:12.259Z,17.7
2017-10-05T03:13:31.001Z,17.6
2017-10-05T03:13:48.716Z,17.6
2017-10-05T03:14:07.987Z,17.57
2017-10-05T03:14:27.256Z,17.51
2017-10-05T03:14:46.532Z,17.55
2017-10-05T03:15:05.304Z,17.54
2017-10-05T03:15:24.596Z,17.54
2017-10-05T03:15:43.354Z,17.53
2017-10-05T03:16:01.580Z,17.51
2017-10-05T03:16:20.841Z,17.53
2017-10-05T03:16:40.134Z,17.44
2017-10-05T03:16:58.886Z,17.53
2017-10-05T03:17:17.654Z,17.53
2017-10-05T03:17:36.932Z,17.51
2017-10-05T03:17:55.168Z,17.5
2017-10-05T03:18:13.928Z,17.51
2017-10-05T03:18:32.658Z,17.6
2017-10-05T03:18:51.438Z,17.64
2017-10-05T03:19:10.221Z,17.53
2017-10-05T03:19:28.446Z,17.51
2017-10-05T03:19:46.680Z,17.57
2017-10-05T03:20:05.458Z,17.51
2017-10-05T03:20:24.745Z,17.48
2017-10-05T03:20:44.031Z,17.55
2017-10-05T03:21:02.813Z,17.5
2017-10-05T03:21:22.101Z,17.47
2017-10-05T03:21:40.835Z,17.54
2017-10-05T03:22:00.108Z,17.48
2017-10-05T03:22:19.368Z,17.57
2017-10-05T03:22:37.734Z,17.54
2017-10-05T03:22:56.486Z,17.58
2017-10-05T03:23:15.245Z,17.53
2017-10-05T03:23:33.484Z,17.5
2017-10-05T03:23:51.707Z,17.51
2017-10-05T03:24:10.981Z,17.51
2017-10-05T03:24:29.728Z,17.48
2017-10-05T03:24:47.953Z,17.51
2017-10-05T03:25:07.203Z,17.47
2017-10-05T03:25:25.946Z,17.46
2017-10-05T03:25:43.118Z,17.4
2017-10-05T03:26:01.363Z,17.43
2017-10-05T03:26:20.155Z,17.51
2017-10-05T03:26:37.852Z,17.47
2017-10-05T03:26:57.140Z,17.44
2017-10-05T03:27:15.900Z,17.5
2017-10-05T03:27:34.741Z,17.38
2017-10-05T03:27:53.509Z,17.51
2017-10-05T03:28:11.715Z,17.44
2017-10-05T03:28:29.957Z,17.44
2017-10-05T03:28:49.255Z,17.39
2017-10-05T03:29:08.525Z,17.35
2017-10-05T03:29:26.743Z,17.36
2017-10-05T03:29:46.031Z,17.28
2017-10-05T03:30:04.796Z,17.3
2017-10-05T03:30:24.089Z,17.21
2017-10-05T03:30:43.417Z,17.35
2017-10-05T03:31:02.711Z,17.32
2017-10-05T03:31:21.494Z,17.32
2017-10-05T03:31:40.750Z,17.23
2017-10-05T03:32:00.036Z,17.33
2017-10-05T03:32:18.770Z,17.25
2017-10-05T03:32:37.756Z,17.32
2017-10-05T03:32:57.031Z,17.32
2017-10-05T03:33:15.791Z,17.26
2017-10-05T03:33:35.075Z,17.33
2017-10-05T03:33:53.348Z,17.33
2017-10-05T03:34:12.111Z,17.29
2017-10-05T03:34:30.865Z,17.25
2017-10-05T03:34:49.100Z,17.32
2017-10-05T03:35:08.355Z,17.36
2017-10-05T03:35:27.655Z,17.32
2017-10-05T03:35:46.435Z,17.35
2017-10-05T03:36:05.721Z,17.21
2017-10-05T03:36:24.974Z,17.28
2017-10-05T03:36:43.186Z,17.29
2017-10-05T03:37:01.398Z,17.23
2017-10-05T03:37:19.637Z,17.36
2017-10-05T03:37:39.060Z,17.25
2017-10-05T03:37:58.378Z,17.29
2017-10-05T03:38:17.651Z,17.26
2017-10-05T03:38:36.406Z,17.29
2017-10-05T03:38:55.680Z,17.28
2017-10-05T03:39:14.968Z,17.3
2017-10-05T03:39:34.246Z,17.3
2017-10-05T03:39:52.489Z,17.2
2017-10-05T03:40:11.760Z,17.17
2017-10-05T03:40:31.046Z,17.15
2017-10-05T03:40:49.811Z,17.23
2017-10-05T03:41:09.101Z,17.23
2017-10-05T03:41:28.350Z,17.17
2017-10-05T03:41:47.630Z,17.2
2017-10-05T03:42:05.355Z,17.17
2017-10-05T03:42:24.645Z,17.25
2017-10-05T03:42:43.901Z,17.23
2017-10-05T03:43:03.168Z,17.3
2017-10-05T03:43:21.947Z,17.26
2017-10-05T03:43:41.275Z,17.2
2017-10-05T03:44:00.558Z,17.23
2017-10-05T03:44:18.787Z,17.25
2017-10-05T03:44:37.529Z,17.23
2017-10-05T03:44:56.810Z,17.32
2017-10-05T03:45:15.589Z,17.26
2017-10-05T03:45:34.849Z,17.23
2017-10-05T03:45:53.615Z,17.28
2017-10-05T03:46:12.381Z,17.32
2017-10-05T03:46:31.676Z,17.23
2017-10-05T03:46:50.951Z,17.32
2017-10-05T03:47:10.215Z,17.29
2017-10-05T03:47:28.983Z,17.28
2017-10-05T03:47:48.232Z,17.25
2017-10-05T03:48:07.527Z,17.2
2017-10-05T03:48:26.852Z,17.13
2017-10-05T03:48:46.157Z,17.25
2017-10-05T03:49:05.123Z,17.2
2017-10-05T03:49:24.406Z,17.28
2017-10-05T03:49:43.172Z,17.29
2017-10-05T03:50:01.925Z,17.29
2017-10-05T03:50:20.677Z,17.36
2017-10-05T03:50:39.947Z,17.33
2017-10-05T03:50:58.708Z,17.25
2017-10-05T03:51:17.447Z,17.28
2017-10-05T03:51:36.191Z,17.26
2017-10-05T03:51:55.445Z,17.18
2017-10-05T03:52:14.737Z,17.21
2017-10-05T03:52:34.010Z,17.29
2017-10-05T03:52:52.741Z,17.28
2017-10-05T03:53:11.487Z,17.21
2017-10-05T03:53:30.759Z,17.3
2017-10-05T03:53:49.493Z,17.29
2017-10-05T03:54:07.701Z,17.23
2017-10-05T03:54:26.995Z,17.21
2017-10-05T03:54:45.242Z,17.2
2017-10-05T03:55:04.548Z,17.21
2017-10-05T03:55:23.816Z,17.17
2017-10-05T03:55:43.075Z,17.25
2017-10-05T03:56:02.350Z,17.17
2017-10-05T03:56:21.629Z,17.11
2017-10-05T03:56:40.368Z,17.15
2017-10-05T03:56:58.605Z,17.2
2017-10-05T03:57:17.372Z,17.18
2017-10-05T03:57:35.690Z,17.17
2017-10-05T03:57:53.935Z,17.18
2017-10-05T03:58:12.177Z,17.2
2017-10-05T03:58:31.452Z,17.17
2017-10-05T03:58:49.693Z,17.18
2017-10-05T03:59:08.957Z,17.18
2017-10-05T03:59:27.712Z,17.21
2017-10-05T03:59:47.004Z,17.13
2017-10-05T04:00:06.280Z,17.23
2017-10-05T04:00:24.022Z,17.23
2017-10-05T04:00:44.268Z,17.2
2017-10-05T04:01:03.596Z,17.18
2017-10-05T04:01:21.866Z,17.1
2017-10-05T04:01:41.144Z,17.1
2017-10-05T04:02:00.408Z,17.1
2017-10-05T04:02:19.796Z,17.08
2017-10-05T04:02:39.241Z,17.05
2017-10-05T04:02:57.470Z,17.08
2017-10-05T04:03:16.204Z,17.08
2017-10-05T04:03:35.508Z,17
2017-10-05T04:03:54.784Z,17.05
2017-10-05T04:04:13.528Z,17.13
2017-10-05T04:04:32.798Z,17.13
2017-10-05T04:04:52.077Z,17.08
2017-10-05T04:05:11.355Z,17.08
2017-10-05T04:05:30.099Z,17.08
2017-10-05T04:05:48.845Z,17.08
2017-10-05T04:06:07.599Z,17.15
2017-10-05T04:06:25.811Z,17.05
2017-10-05T04:06:44.574Z,17.11
2017-10-05T04:07:03.855Z,17.1
2017-10-05T04:07:22.612Z,17.03
2017-10-05T04:07:42.145Z,17.05